sensor_id;sensor_type;location;lat;lon;timestamp;P1;durP1;ratioP1;P2;durP2;ratioP2
19235;SDS011;9752;54.270;12.470;2023-10-13T00:02:29;14.37;;;8.87;;
19235;SDS011;9752;54.270;12.470;2023-10-13T00:07:32;14.07;;;8.03;;
19235;SDS011;9752;54.270;12.470;2023-10-13T00:12:33;13.27;;;7.93;;
19235;SDS011;9752;54.270;12.470;2023-10-13T00:17:38;12.93;;;7.53;;
19235;SDS011;9752;54.270;12.470;2023-10-13T00:22:41;9.63;;;7.87;;
19235;SDS011;9752;54.270;12.470;2023-10-13T00:27:44;12.57;;;7.77;;
19235;SDS011;9752;54.270;12.470;2023-10-13T00:32:52;10.93;;;6.87;;
19235;SDS011;9752;54.270;12.470;2023-10-13T00:37:56;17.97;;;8.23;;
19235;SDS011;9752;54.270;12.470;2023-10-13T00:43:00;9.90;;;8.07;;
19235;SDS011;9752;54.270;12.470;2023-10-13T00:48:25;15.33;;;7.53;;
19235;SDS011;9752;54.270;12.470;2023-10-13T00:53:35;12.90;;;8.10;;
19235;SDS011;9752;54.270;12.470;2023-10-13T00:58:40;17.30;;;8.93;;
19235;SDS011;9752;54.270;12.470;2023-10-13T01:03:41;23.17;;;8.70;;
19235;SDS011;9752;54.270;12.470;2023-10-13T01:08:46;10.83;;;8.33;;
19235;SDS011;9752;54.270;12.470;2023-10-13T01:13:51;14.60;;;8.63;;
19235;SDS011;9752;54.270;12.470;2023-10-13T01:18:53;19.70;;;10.17;;
19235;SDS011;9752;54.270;12.470;2023-10-13T01:24:01;16.77;;;10.40;;
19235;SDS011;9752;54.270;12.470;2023-10-13T01:29:08;20.00;;;10.77;;
19235;SDS011;9752;54.270;12.470;2023-10-13T01:34:14;19.67;;;10.80;;
19235;SDS011;9752;54.270;12.470;2023-10-13T01:39:24;17.77;;;9.53;;
19235;SDS011;9752;54.270;12.470;2023-10-13T01:44:27;16.00;;;10.07;;
19235;SDS011;9752;54.270;12.470;2023-10-13T01:49:31;21.40;;;10.13;;
19235;SDS011;9752;54.270;12.470;2023-10-13T01:54:42;16.73;;;8.93;;
19235;SDS011;9752;54.270;12.470;2023-10-13T01:59:45;9.57;;;8.03;;
19235;SDS011;9752;54.270;12.470;2023-10-13T02:04:48;19.87;;;8.63;;
19235;SDS011;9752;54.270;12.470;2023-10-13T02:09:57;18.53;;;8.30;;
19235;SDS011;9752;54.270;12.470;2023-10-13T02:14:59;14.53;;;8.43;;
19235;SDS011;9752;54.270;12.470;2023-10-13T02:20:01;19.73;;;9.43;;
19235;SDS011;9752;54.270;12.470;2023-10-13T02:25:09;14.60;;;8.60;;
19235;SDS011;9752;54.270;12.470;2023-10-13T02:30:19;13.83;;;7.73;;
19235;SDS011;9752;54.270;12.470;2023-10-13T02:35:24;11.57;;;7.70;;
19235;SDS011;9752;54.270;12.470;2023-10-13T02:40:36;11.07;;;7.30;;
19235;SDS011;9752;54.270;12.470;2023-10-13T02:45:37;10.77;;;7.00;;
19235;SDS011;9752;54.270;12.470;2023-10-13T02:50:40;13.00;;;7.23;;
19235;SDS011;9752;54.270;12.470;2023-10-13T02:55:51;18.00;;;8.17;;
19235;SDS011;9752;54.270;12.470;2023-10-13T03:00:54;20.40;;;7.97;;
19235;SDS011;9752;54.270;12.470;2023-10-13T03:05:58;17.67;;;7.87;;
19235;SDS011;9752;54.270;12.470;2023-10-13T03:11:02;14.70;;;7.17;;
19235;SDS011;9752;54.270;12.470;2023-10-13T03:16:11;10.13;;;7.47;;
19235;SDS011;9752;54.270;12.470;2023-10-13T03:21:16;13.67;;;7.50;;
19235;SDS011;9752;54.270;12.470;2023-10-13T03:26:29;15.83;;;7.70;;
19235;SDS011;9752;54.270;12.470;2023-10-13T03:31:34;16.63;;;7.83;;
19235;SDS011;9752;54.270;12.470;2023-10-13T03:36:39;10.37;;;7.80;;
19235;SDS011;9752;54.270;12.470;2023-10-13T03:42:00;8.43;;;7.03;;
19235;SDS011;9752;54.270;12.470;2023-10-13T03:47:05;12.63;;;9.00;;
19235;SDS011;9752;54.270;12.470;2023-10-13T03:52:18;17.83;;;8.17;;
19235;SDS011;9752;54.270;12.470;2023-10-13T03:57:24;19.63;;;9.27;;
19235;SDS011;9752;54.270;12.470;2023-10-13T04:02:28;15.70;;;9.40;;
19235;SDS011;9752;54.270;12.470;2023-10-13T04:07:30;13.37;;;8.30;;
19235;SDS011;9752;54.270;12.470;2023-10-13T04:13:02;17.30;;;9.33;;
19235;SDS011;9752;54.270;12.470;2023-10-13T04:18:21;15.07;;;9.03;;
19235;SDS011;9752;54.270;12.470;2023-10-13T04:23:34;14.90;;;8.87;;
19235;SDS011;9752;54.270;12.470;2023-10-13T04:28:58;18.33;;;9.30;;
19235;SDS011;9752;54.270;12.470;2023-10-13T04:34:09;16.10;;;8.20;;
19235;SDS011;9752;54.270;12.470;2023-10-13T04:39:20;17.73;;;8.67;;
19235;SDS011;9752;54.270;12.470;2023-10-13T04:44:37;20.97;;;10.43;;
19235;SDS011;9752;54.270;12.470;2023-10-13T04:49:53;13.73;;;9.17;;
19235;SDS011;9752;54.270;12.470;2023-10-13T04:54:58;13.93;;;9.30;;
19235;SDS011;9752;54.270;12.470;2023-10-13T05:00:12;15.80;;;8.70;;
19235;SDS011;9752;54.270;12.470;2023-10-13T05:05:33;23.60;;;9.63;;
19235;SDS011;9752;54.270;12.470;2023-10-13T05:11:06;19.40;;;9.23;;
19235;SDS011;9752;54.270;12.470;2023-10-13T05:16:27;20.10;;;9.43;;
19235;SDS011;9752;54.270;12.470;2023-10-13T05:21:50;23.13;;;11.37;;
19235;SDS011;9752;54.270;12.470;2023-10-13T05:27:09;23.87;;;11.47;;
19235;SDS011;9752;54.270;12.470;2023-10-13T05:32:30;19.20;;;10.13;;
19235;SDS011;9752;54.270;12.470;2023-10-13T05:37:49;21.30;;;11.87;;
19235;SDS011;9752;54.270;12.470;2023-10-13T05:43:08;22.23;;;11.60;;
19235;SDS011;9752;54.270;12.470;2023-10-13T05:48:43;31.83;;;13.77;;
19235;SDS011;9752;54.270;12.470;2023-10-13T05:54:10;33.67;;;15.10;;
19235;SDS011;9752;54.270;12.470;2023-10-13T05:59:31;31.43;;;16.80;;
19235;SDS011;9752;54.270;12.470;2023-10-13T06:04:52;33.03;;;15.87;;
19235;SDS011;9752;54.270;12.470;2023-10-13T06:10:11;31.53;;;15.90;;
19235;SDS011;9752;54.270;12.470;2023-10-13T06:15:35;28.10;;;17.63;;
19235;SDS011;9752;54.270;12.470;2023-10-13T06:20:56;29.40;;;17.20;;
19235;SDS011;9752;54.270;12.470;2023-10-13T06:26:15;32.20;;;17.43;;
19235;SDS011;9752;54.270;12.470;2023-10-13T06:31:34;29.60;;;18.37;;
19235;SDS011;9752;54.270;12.470;2023-10-13T06:36:38;28.83;;;18.57;;
19235;SDS011;9752;54.270;12.470;2023-10-13T06:41:40;28.57;;;18.67;;
19235;SDS011;9752;54.270;12.470;2023-10-13T06:46:42;33.77;;;19.83;;
19235;SDS011;9752;54.270;12.470;2023-10-13T06:51:45;35.20;;;20.83;;
19235;SDS011;9752;54.270;12.470;2023-10-13T06:56:48;28.83;;;17.83;;
19235;SDS011;9752;54.270;12.470;2023-10-13T07:01:53;34.63;;;19.03;;
19235;SDS011;9752;54.270;12.470;2023-10-13T07:06:56;43.47;;;20.83;;
19235;SDS011;9752;54.270;12.470;2023-10-13T07:12:01;20.60;;;13.97;;
19235;SDS011;9752;54.270;12.470;2023-10-13T07:17:04;18.30;;;13.27;;
19235;SDS011;9752;54.270;12.470;2023-10-13T07:22:09;25.90;;;16.50;;
19235;SDS011;9752;54.270;12.470;2023-10-13T07:27:19;17.03;;;12.50;;
19235;SDS011;9752;54.270;12.470;2023-10-13T07:32:24;17.37;;;12.23;;
19235;SDS011;9752;54.270;12.470;2023-10-13T07:37:28;18.33;;;12.17;;
19235;SDS011;9752;54.270;12.470;2023-10-13T07:42:30;15.27;;;11.50;;
19235;SDS011;9752;54.270;12.470;2023-10-13T07:47:39;17.07;;;13.57;;
19235;SDS011;9752;54.270;12.470;2023-10-13T07:52:43;18.67;;;13.83;;
19235;SDS011;9752;54.270;12.470;2023-10-13T07:57:59;23.13;;;14.13;;
19235;SDS011;9752;54.270;12.470;2023-10-13T08:03:07;25.97;;;15.57;;
19235;SDS011;9752;54.270;12.470;2023-10-13T08:08:21;27.90;;;16.00;;
19235;SDS011;9752;54.270;12.470;2023-10-13T08:13:25;23.63;;;14.97;;
19235;SDS011;9752;54.270;12.470;2023-10-13T08:18:27;24.70;;;15.53;;
19235;SDS011;9752;54.270;12.470;2023-10-13T08:23:32;29.13;;;18.60;;
19235;SDS011;9752;54.270;12.470;2023-10-13T08:28:51;32.93;;;20.73;;
19235;SDS011;9752;54.270;12.470;2023-10-13T08:33:56;25.10;;;19.20;;
19235;SDS011;9752;54.270;12.470;2023-10-13T08:39:08;31.07;;;21.93;;
19235;SDS011;9752;54.270;12.470;2023-10-13T08:44:38;34.53;;;21.80;;
19235;SDS011;9752;54.270;12.470;2023-10-13T08:49:43;38.70;;;23.00;;
19235;SDS011;9752;54.270;12.470;2023-10-13T08:54:52;33.90;;;25.13;;
19235;SDS011;9752;54.270;12.470;2023-10-13T09:00:14;34.67;;;24.93;;
19235;SDS011;9752;54.270;12.470;2023-10-13T09:05:28;40.53;;;26.03;;
19235;SDS011;9752;54.270;12.470;2023-10-13T09:10:44;27.17;;;22.33;;
19235;SDS011;9752;54.270;12.470;2023-10-13T09:16:08;38.47;;;27.33;;
19235;SDS011;9752;54.270;12.470;2023-10-13T09:21:16;39.20;;;26.57;;
19235;SDS011;9752;54.270;12.470;2023-10-13T09:26:45;24.17;;;20.40;;
19235;SDS011;9752;54.270;12.470;2023-10-13T09:31:57;24.73;;;20.93;;
19235;SDS011;9752;54.270;12.470;2023-10-13T09:37:02;22.03;;;19.67;;
19235;SDS011;9752;54.270;12.470;2023-10-13T09:42:06;23.37;;;20.77;;
19235;SDS011;9752;54.270;12.470;2023-10-13T09:47:10;23.33;;;20.80;;
19235;SDS011;9752;54.270;12.470;2023-10-13T09:52:18;21.93;;;19.33;;
19235;SDS011;9752;54.270;12.470;2023-10-13T09:57:22;19.00;;;16.90;;
19235;SDS011;9752;54.270;12.470;2023-10-13T10:02:24;20.50;;;18.37;;
19235;SDS011;9752;54.270;12.470;2023-10-13T10:07:26;23.20;;;19.47;;
19235;SDS011;9752;54.270;12.470;2023-10-13T10:12:32;25.87;;;21.10;;
19235;SDS011;9752;54.270;12.470;2023-10-13T10:17:41;19.97;;;16.87;;
19235;SDS011;9752;54.270;12.470;2023-10-13T10:22:43;16.33;;;14.63;;
19235;SDS011;9752;54.270;12.470;2023-10-13T10:27:55;18.83;;;15.77;;
19235;SDS011;9752;54.270;12.470;2023-10-13T10:32:57;16.30;;;14.73;;
19235;SDS011;9752;54.270;12.470;2023-10-13T10:38:12;15.90;;;14.30;;
19235;SDS011;9752;54.270;12.470;2023-10-13T10:43:26;12.80;;;11.60;;
19235;SDS011;9752;54.270;12.470;2023-10-13T10:48:30;12.57;;;11.43;;
19235;SDS011;9752;54.270;12.470;2023-10-13T10:53:38;12.20;;;11.00;;
19235;SDS011;9752;54.270;12.470;2023-10-13T10:58:45;11.90;;;10.43;;
19235;SDS011;9752;54.270;12.470;2023-10-13T11:03:53;10.80;;;9.80;;
19235;SDS011;9752;54.270;12.470;2023-10-13T11:09:08;10.53;;;9.53;;
19235;SDS011;9752;54.270;12.470;2023-10-13T11:14:23;10.00;;;9.10;;
19235;SDS011;9752;54.270;12.470;2023-10-13T11:19:33;8.00;;;7.30;;
19235;SDS011;9752;54.270;12.470;2023-10-13T11:24:39;8.67;;;7.97;;
19235;SDS011;9752;54.270;12.470;2023-10-13T11:29:43;9.93;;;7.80;;
19235;SDS011;9752;54.270;12.470;2023-10-13T11:34:52;8.90;;;8.00;;
19235;SDS011;9752;54.270;12.470;2023-10-13T11:39:54;8.00;;;7.30;;
19235;SDS011;9752;54.270;12.470;2023-10-13T11:44:57;8.30;;;7.60;;
19235;SDS011;9752;54.270;12.470;2023-10-13T11:50:23;8.00;;;7.30;;
19235;SDS011;9752;54.270;12.470;2023-10-13T11:55:33;8.43;;;7.77;;
19235;SDS011;9752;54.270;12.470;2023-10-13T12:00:36;13.20;;;8.93;;
19235;SDS011;9752;54.270;12.470;2023-10-13T12:05:54;9.27;;;8.37;;
19235;SDS011;9752;54.270;12.470;2023-10-13T12:11:18;8.53;;;7.73;;
19235;SDS011;9752;54.270;12.470;2023-10-13T12:16:33;8.37;;;7.50;;
19235;SDS011;9752;54.270;12.470;2023-10-13T12:21:35;8.33;;;7.50;;
19235;SDS011;9752;54.270;12.470;2023-10-13T12:26:38;8.97;;;8.13;;
19235;SDS011;9752;54.270;12.470;2023-10-13T12:31:43;11.60;;;8.30;;
19235;SDS011;9752;54.270;12.470;2023-10-13T12:36:52;9.20;;;8.40;;
19235;SDS011;9752;54.270;12.470;2023-10-13T12:42:05;11.33;;;8.23;;
19235;SDS011;9752;54.270;12.470;2023-10-13T12:47:26;10.93;;;9.07;;
19235;SDS011;9752;54.270;12.470;2023-10-13T12:52:45;10.03;;;9.00;;
19235;SDS011;9752;54.270;12.470;2023-10-13T12:57:47;11.03;;;9.57;;
19235;SDS011;9752;54.270;12.470;2023-10-13T13:02:50;11.10;;;9.53;;
19235;SDS011;9752;54.270;12.470;2023-10-13T13:07:55;12.43;;;9.23;;
19235;SDS011;9752;54.270;12.470;2023-10-13T13:12:57;13.67;;;9.30;;
19235;SDS011;9752;54.270;12.470;2023-10-13T13:18:00;12.10;;;9.30;;
19235;SDS011;9752;54.270;12.470;2023-10-13T13:23:10;12.63;;;9.90;;
19235;SDS011;9752;54.270;12.470;2023-10-13T13:28:12;15.23;;;9.47;;
19235;SDS011;9752;54.270;12.470;2023-10-13T13:33:16;11.73;;;9.13;;
19235;SDS011;9752;54.270;12.470;2023-10-13T13:38:23;9.57;;;8.43;;
19235;SDS011;9752;54.270;12.470;2023-10-13T13:43:27;12.80;;;8.93;;
19235;SDS011;9752;54.270;12.470;2023-10-13T13:48:52;16.53;;;8.93;;
19235;SDS011;9752;54.270;12.470;2023-10-13T13:53:59;13.53;;;8.77;;
19235;SDS011;9752;54.270;12.470;2023-10-13T13:59:01;12.60;;;8.70;;
19235;SDS011;9752;54.270;12.470;2023-10-13T14:04:11;12.00;;;8.83;;
19235;SDS011;9752;54.270;12.470;2023-10-13T14:09:14;11.53;;;8.37;;
19235;SDS011;9752;54.270;12.470;2023-10-13T14:14:16;9.63;;;8.67;;
19235;SDS011;9752;54.270;12.470;2023-10-13T14:19:35;11.87;;;9.07;;
19235;SDS011;9752;54.270;12.470;2023-10-13T14:24:40;10.53;;;8.53;;
19235;SDS011;9752;54.270;12.470;2023-10-13T14:29:47;9.97;;;8.97;;
19235;SDS011;9752;54.270;12.470;2023-10-13T14:34:54;13.00;;;10.97;;
19235;SDS011;9752;54.270;12.470;2023-10-13T14:39:56;9.87;;;8.60;;
19235;SDS011;9752;54.270;12.470;2023-10-13T14:44:59;11.93;;;9.60;;
19235;SDS011;9752;54.270;12.470;2023-10-13T14:50:02;12.00;;;9.03;;
19235;SDS011;9752;54.270;12.470;2023-10-13T14:55:05;9.63;;;8.80;;
19235;SDS011;9752;54.270;12.470;2023-10-13T15:00:19;15.33;;;9.70;;
19235;SDS011;9752;54.270;12.470;2023-10-13T15:05:27;17.03;;;9.07;;
19235;SDS011;9752;54.270;12.470;2023-10-13T15:10:30;16.93;;;8.70;;
19235;SDS011;9752;54.270;12.470;2023-10-13T15:15:31;11.63;;;8.67;;
19235;SDS011;9752;54.270;12.470;2023-10-13T15:20:40;12.27;;;9.37;;
19235;SDS011;9752;54.270;12.470;2023-10-13T15:25:43;10.17;;;9.10;;
19235;SDS011;9752;54.270;12.470;2023-10-13T15:30:50;15.40;;;8.63;;
19235;SDS011;9752;54.270;12.470;2023-10-13T15:35:58;10.10;;;8.43;;
19235;SDS011;9752;54.270;12.470;2023-10-13T15:41:00;13.10;;;9.40;;
19235;SDS011;9752;54.270;12.470;2023-10-13T15:46:04;10.40;;;9.27;;
19235;SDS011;9752;54.270;12.470;2023-10-13T15:51:17;17.17;;;10.00;;
19235;SDS011;9752;54.270;12.470;2023-10-13T15:56:20;16.47;;;9.77;;
19235;SDS011;9752;54.270;12.470;2023-10-13T16:01:21;13.43;;;10.53;;
19235;SDS011;9752;54.270;12.470;2023-10-13T16:06:25;11.40;;;9.80;;
19235;SDS011;9752;54.270;12.470;2023-10-13T16:11:29;16.73;;;10.13;;
19235;SDS011;9752;54.270;12.470;2023-10-13T16:16:31;20.30;;;10.60;;
19235;SDS011;9752;54.270;12.470;2023-10-13T16:21:36;14.90;;;9.13;;
19235;SDS011;9752;54.270;12.470;2023-10-13T16:26:39;18.27;;;9.97;;
19235;SDS011;9752;54.270;12.470;2023-10-13T16:31:42;17.30;;;10.07;;
19235;SDS011;9752;54.270;12.470;2023-10-13T16:36:47;15.87;;;9.47;;
19235;SDS011;9752;54.270;12.470;2023-10-13T16:41:54;15.53;;;9.63;;
19235;SDS011;9752;54.270;12.470;2023-10-13T16:46:56;14.93;;;10.73;;
19235;SDS011;9752;54.270;12.470;2023-10-13T16:52:01;19.77;;;11.37;;
19235;SDS011;9752;54.270;12.470;2023-10-13T16:57:03;15.93;;;9.63;;
19235;SDS011;9752;54.270;12.470;2023-10-13T17:02:07;15.67;;;11.10;;
19235;SDS011;9752;54.270;12.470;2023-10-13T17:07:10;14.77;;;11.03;;
19235;SDS011;9752;54.270;12.470;2023-10-13T17:12:14;21.23;;;11.97;;
19235;SDS011;9752;54.270;12.470;2023-10-13T17:17:16;16.37;;;10.90;;
19235;SDS011;9752;54.270;12.470;2023-10-13T17:22:22;17.00;;;12.77;;
19235;SDS011;9752;54.270;12.470;2023-10-13T17:27:24;21.53;;;11.53;;
19235;SDS011;9752;54.270;12.470;2023-10-13T17:32:26;17.80;;;11.77;;
19235;SDS011;9752;54.270;12.470;2023-10-13T17:37:29;15.27;;;12.07;;
19235;SDS011;9752;54.270;12.470;2023-10-13T17:42:33;22.53;;;13.13;;
19235;SDS011;9752;54.270;12.470;2023-10-13T17:47:35;17.00;;;12.10;;
19235;SDS011;9752;54.270;12.470;2023-10-13T17:52:39;16.67;;;12.57;;
19235;SDS011;9752;54.270;12.470;2023-10-13T17:57:42;18.40;;;11.83;;
19235;SDS011;9752;54.270;12.470;2023-10-13T18:02:46;17.87;;;12.33;;
19235;SDS011;9752;54.270;12.470;2023-10-13T18:07:49;19.90;;;12.70;;
19235;SDS011;9752;54.270;12.470;2023-10-13T18:12:51;18.80;;;12.00;;
19235;SDS011;9752;54.270;12.470;2023-10-13T18:17:53;16.30;;;12.40;;
19235;SDS011;9752;54.270;12.470;2023-10-13T18:22:57;14.77;;;11.37;;
19235;SDS011;9752;54.270;12.470;2023-10-13T18:27:59;16.50;;;11.23;;
19235;SDS011;9752;54.270;12.470;2023-10-13T18:33:03;15.30;;;10.40;;
19235;SDS011;9752;54.270;12.470;2023-10-13T18:38:08;18.90;;;10.20;;
19235;SDS011;9752;54.270;12.470;2023-10-13T18:43:10;16.50;;;9.97;;
19235;SDS011;9752;54.270;12.470;2023-10-13T18:48:12;19.73;;;10.90;;
19235;SDS011;9752;54.270;12.470;2023-10-13T18:53:16;16.77;;;10.17;;
19235;SDS011;9752;54.270;12.470;2023-10-13T18:58:18;15.93;;;8.97;;
19235;SDS011;9752;54.270;12.470;2023-10-13T19:03:19;16.07;;;10.23;;
19235;SDS011;9752;54.270;12.470;2023-10-13T19:08:27;15.40;;;10.20;;
19235;SDS011;9752;54.270;12.470;2023-10-13T19:13:31;14.20;;;9.47;;
19235;SDS011;9752;54.270;12.470;2023-10-13T19:18:33;18.20;;;10.33;;
19235;SDS011;9752;54.270;12.470;2023-10-13T19:23:37;18.23;;;10.03;;
19235;SDS011;9752;54.270;12.470;2023-10-13T19:28:38;11.33;;;9.60;;
19235;SDS011;9752;54.270;12.470;2023-10-13T19:33:41;15.77;;;10.47;;
19235;SDS011;9752;54.270;12.470;2023-10-13T19:38:45;17.87;;;10.37;;
19235;SDS011;9752;54.270;12.470;2023-10-13T19:43:48;17.10;;;11.13;;
19235;SDS011;9752;54.270;12.470;2023-10-13T19:48:51;15.73;;;11.80;;
19235;SDS011;9752;54.270;12.470;2023-10-13T19:53:55;16.40;;;11.30;;
19235;SDS011;9752;54.270;12.470;2023-10-13T19:58:58;17.27;;;10.97;;
19235;SDS011;9752;54.270;12.470;2023-10-13T20:04:01;14.97;;;10.90;;
19235;SDS011;9752;54.270;12.470;2023-10-13T20:09:08;16.23;;;10.80;;
19235;SDS011;9752;54.270;12.470;2023-10-13T20:14:17;22.97;;;10.53;;
19235;SDS011;9752;54.270;12.470;2023-10-13T20:19:21;14.83;;;10.17;;
19235;SDS011;9752;54.270;12.470;2023-10-13T20:24:25;14.33;;;10.70;;
19235;SDS011;9752;54.270;12.470;2023-10-13T20:29:27;13.97;;;10.07;;
19235;SDS011;9752;54.270;12.470;2023-10-13T20:34:29;14.93;;;9.77;;
19235;SDS011;9752;54.270;12.470;2023-10-13T20:39:33;12.17;;;9.43;;
19235;SDS011;9752;54.270;12.470;2023-10-13T20:44:35;14.23;;;9.53;;
19235;SDS011;9752;54.270;12.470;2023-10-13T20:49:40;13.90;;;9.20;;
19235;SDS011;9752;54.270;12.470;2023-10-13T20:54:45;13.20;;;10.50;;
19235;SDS011;9752;54.270;12.470;2023-10-13T20:59:46;13.97;;;9.57;;
19235;SDS011;9752;54.270;12.470;2023-10-13T21:04:49;27.93;;;11.17;;
19235;SDS011;9752;54.270;12.470;2023-10-13T21:09:52;15.13;;;11.00;;
19235;SDS011;9752;54.270;12.470;2023-10-13T21:14:54;17.33;;;10.63;;
19235;SDS011;9752;54.270;12.470;2023-10-13T21:19:56;21.80;;;12.20;;
19235;SDS011;9752;54.270;12.470;2023-10-13T21:24:59;16.93;;;11.97;;
19235;SDS011;9752;54.270;12.470;2023-10-13T21:30:03;22.93;;;11.67;;
19235;SDS011;9752;54.270;12.470;2023-10-13T21:35:07;18.33;;;13.30;;
19235;SDS011;9752;54.270;12.470;2023-10-13T21:40:11;23.67;;;12.90;;
19235;SDS011;9752;54.270;12.470;2023-10-13T21:45:17;24.97;;;12.80;;
19235;SDS011;9752;54.270;12.470;2023-10-13T21:50:19;23.23;;;13.63;;
19235;SDS011;9752;54.270;12.470;2023-10-13T21:55:23;22.13;;;14.03;;
19235;SDS011;9752;54.270;12.470;2023-10-13T22:00:26;24.23;;;14.03;;
19235;SDS011;9752;54.270;12.470;2023-10-13T22:05:56;21.77;;;14.10;;
19235;SDS011;9752;54.270;12.470;2023-10-13T22:11:02;18.93;;;12.77;;
19235;SDS011;9752;54.270;12.470;2023-10-13T22:16:04;18.23;;;13.70;;
19235;SDS011;9752;54.270;12.470;2023-10-13T22:21:10;17.33;;;13.50;;
19235;SDS011;9752;54.270;12.470;2023-10-13T22:26:15;17.83;;;13.83;;
19235;SDS011;9752;54.270;12.470;2023-10-13T22:31:18;16.37;;;12.37;;
19235;SDS011;9752;54.270;12.470;2023-10-13T22:36:22;18.23;;;11.87;;
19235;SDS011;9752;54.270;12.470;2023-10-13T22:41:26;21.93;;;10.83;;
19235;SDS011;9752;54.270;12.470;2023-10-13T22:46:29;16.17;;;10.47;;
19235;SDS011;9752;54.270;12.470;2023-10-13T22:51:31;11.30;;;9.33;;
19235;SDS011;9752;54.270;12.470;2023-10-13T22:56:34;9.80;;;8.93;;
19235;SDS011;9752;54.270;12.470;2023-10-13T23:01:41;8.83;;;8.03;;
19235;SDS011;9752;54.270;12.470;2023-10-13T23:06:43;9.17;;;8.23;;
19235;SDS011;9752;54.270;12.470;2023-10-13T23:11:51;10.23;;;8.47;;
19235;SDS011;9752;54.270;12.470;2023-10-13T23:16:56;11.80;;;8.77;;
19235;SDS011;9752;54.270;12.470;2023-10-13T23:21:58;9.23;;;8.63;;
19235;SDS011;9752;54.270;12.470;2023-10-13T23:27:02;9.07;;;8.33;;
19235;SDS011;9752;54.270;12.470;2023-10-13T23:32:05;9.23;;;8.37;;
19235;SDS011;9752;54.270;12.470;2023-10-13T23:37:07;14.17;;;9.40;;
19235;SDS011;9752;54.270;12.470;2023-10-13T23:42:13;10.93;;;9.67;;
19235;SDS011;9752;54.270;12.470;2023-10-13T23:47:23;14.37;;;10.03;;
19235;SDS011;9752;54.270;12.470;2023-10-13T23:52:27;14.47;;;10.83;;
19235;SDS011;9752;54.270;12.470;2023-10-13T23:57:34;15.47;;;11.27;;
